createdAt,value
2018-07-31T04:00:53.353Z,22.52
2018-07-31T04:01:53.240Z,22.54
2018-07-31T04:03:45.935Z,22.54
2018-07-31T04:04:45.842Z,22.46
2018-07-31T04:06:38.559Z,22.44
2018-07-31T04:07:38.425Z,22.51
2018-07-31T04:09:31.112Z,22.45
2018-07-31T04:10:31.012Z,22.42
2018-07-31T04:12:23.719Z,22.49
2018-07-31T04:13:23.594Z,22.52
2018-07-31T04:15:16.298Z,22.55
2018-07-31T04:16:16.197Z,22.54
2018-07-31T04:18:08.904Z,22.41
2018-07-31T04:19:08.789Z,22.48
2018-07-31T04:21:01.489Z,22.45
2018-07-31T04:22:01.380Z,22.51
2018-07-31T04:23:54.072Z,22.55
2018-07-31T04:24:53.963Z,22.54
2018-07-31T04:26:46.676Z,22.51
2018-07-31T04:27:46.559Z,22.54
2018-07-31T04:29:39.249Z,22.45
2018-07-31T04:30:39.148Z,22.60
2018-07-31T04:32:31.857Z,22.46
2018-07-31T04:33:31.742Z,22.52
2018-07-31T04:35:24.429Z,22.54
2018-07-31T04:36:24.334Z,22.46
2018-07-31T04:38:17.041Z,22.44
2018-07-31T04:39:16.921Z,22.46
2018-07-31T04:41:09.700Z,22.54
2018-07-31T04:42:09.520Z,22.63
2018-07-31T04:44:02.210Z,22.57
2018-07-31T04:45:02.102Z,22.64
2018-07-31T04:46:54.814Z,22.73
2018-07-31T04:47:54.696Z,22.67
2018-07-31T04:49:47.384Z,22.57
2018-07-31T04:50:47.290Z,22.57
2018-07-31T04:52:39.996Z,22.54
2018-07-31T04:53:39.882Z,22.54
2018-07-31T04:55:32.565Z,22.52
2018-07-31T04:56:32.466Z,22.70
2018-07-31T04:58:25.178Z,22.69
2018-07-31T04:59:25.062Z,22.70
2018-07-31T05:01:17.781Z,22.66
2018-07-31T05:02:17.657Z,22.66
2018-07-31T05:04:10.355Z,22.79
2018-07-31T05:05:10.248Z,22.79
2018-07-31T05:07:02.953Z,22.94
2018-07-31T05:08:02.843Z,22.96
2018-07-31T05:09:55.534Z,22.91
2018-07-31T05:10:55.448Z,22.89
2018-07-31T05:12:48.148Z,22.94
2018-07-31T05:13:48.032Z,23.04
2018-07-31T05:15:40.718Z,23.04
2018-07-31T05:16:40.622Z,23.03
2018-07-31T05:18:33.333Z,23.28
2018-07-31T05:19:33.208Z,23.42
2018-07-31T05:21:25.917Z,23.42
2018-07-31T05:22:25.802Z,23.42
2018-07-31T05:24:18.517Z,23.52
2018-07-31T05:25:18.420Z,23.63
2018-07-31T05:27:11.101Z,23.60
2018-07-31T05:28:10.980Z,23.59
2018-07-31T05:30:03.681Z,23.62
2018-07-31T05:31:03.569Z,23.55
2018-07-31T05:32:56.293Z,23.66
2018-07-31T05:33:56.163Z,23.55
2018-07-31T05:35:48.876Z,23.56
2018-07-31T05:36:48.749Z,23.60
2018-07-31T05:38:41.450Z,23.66
2018-07-31T05:39:41.348Z,23.74
2018-07-31T05:41:34.056Z,23.87
2018-07-31T05:42:33.941Z,23.87
2018-07-31T05:44:26.641Z,23.94
2018-07-31T05:45:26.543Z,23.96
2018-07-31T05:47:19.255Z,24.04
2018-07-31T05:48:19.141Z,24.11
2018-07-31T05:50:11.829Z,24.07
2018-07-31T05:51:11.726Z,24.19
2018-07-31T05:53:04.435Z,24.37
2018-07-31T05:54:04.327Z,24.39
2018-07-31T05:55:57.037Z,24.42
2018-07-31T05:56:56.914Z,24.44
2018-07-31T05:58:49.605Z,24.24
2018-07-31T05:59:49.506Z,24.15
2018-07-31T06:01:42.215Z,24.15
2018-07-31T06:02:42.111Z,24.03
2018-07-31T06:04:34.789Z,24.11
2018-07-31T06:05:34.691Z,24.04
2018-07-31T06:07:27.397Z,24.14
2018-07-31T06:08:27.283Z,24.18
2018-07-31T06:10:19.972Z,24.26
2018-07-31T06:11:19.930Z,24.34
2018-07-31T06:13:12.578Z,24.37
2018-07-31T06:14:12.470Z,24.30
2018-07-31T06:16:05.174Z,24.37
2018-07-31T06:17:05.062Z,24.37
2018-07-31T06:18:57.754Z,24.44
2018-07-31T06:19:57.660Z,24.44
2018-07-31T06:21:50.370Z,24.45
2018-07-31T06:22:50.253Z,24.56
2018-07-31T06:24:42.984Z,24.51
2018-07-31T06:25:42.883Z,24.54
2018-07-31T06:27:35.629Z,24.59
2018-07-31T06:28:35.529Z,24.61
2018-07-31T06:30:28.198Z,24.69
2018-07-31T06:31:28.098Z,24.83
2018-07-31T06:33:20.817Z,24.96
2018-07-31T06:34:20.706Z,25.11
2018-07-31T06:36:13.408Z,25.79
2018-07-31T06:37:13.288Z,26.69
2018-07-31T06:39:05.997Z,29.47
2018-07-31T06:40:05.905Z,30.91
2018-07-31T06:41:58.634Z,32.98
2018-07-31T06:42:58.509Z,33.75
2018-07-31T06:44:51.210Z,34.18
2018-07-31T06:45:51.124Z,34.41
2018-07-31T06:47:43.846Z,33.87
2018-07-31T06:48:43.735Z,34.06
2018-07-31T06:50:36.437Z,35.12
2018-07-31T06:51:36.350Z,35.49
2018-07-31T06:53:29.073Z,35.86
2018-07-31T06:54:28.972Z,35.92
2018-07-31T06:56:21.706Z,36.33
2018-07-31T06:57:21.592Z,35.57
2018-07-31T06:59:14.309Z,36.49
2018-07-31T07:00:14.219Z,36.70
2018-07-31T07:02:06.995Z,36.78
2018-07-31T07:03:06.848Z,37.34
2018-07-31T07:04:59.560Z,38.05
2018-07-31T07:05:59.484Z,38.56
2018-07-31T07:07:52.215Z,38.21
2018-07-31T07:08:52.105Z,37.98
2018-07-31T07:10:44.839Z,37.19
2018-07-31T07:11:44.746Z,36.55
2018-07-31T07:13:37.487Z,35.65
2018-07-31T07:14:37.376Z,35.45
2018-07-31T07:16:30.126Z,35.71
2018-07-31T07:17:30.021Z,34.97
2018-07-31T07:19:22.730Z,35.89
2018-07-31T07:20:22.642Z,35.95
2018-07-31T07:22:15.373Z,37.15
2018-07-31T07:23:15.271Z,37.75
2018-07-31T07:25:07.994Z,38.44
2018-07-31T07:26:07.908Z,39.00
2018-07-31T07:28:00.673Z,38.64
2018-07-31T07:29:00.542Z,38.09
2018-07-31T07:30:53.297Z,36.51
2018-07-31T07:31:53.180Z,35.86
2018-07-31T07:33:45.962Z,34.96
2018-07-31T07:34:45.817Z,35.05
2018-07-31T07:36:38.550Z,35.43
2018-07-31T07:37:38.443Z,35.30
2018-07-31T07:39:31.163Z,34.52
2018-07-31T07:40:31.072Z,34.22
2018-07-31T07:42:23.804Z,34.48
2018-07-31T07:43:23.700Z,34.69
2018-07-31T07:45:16.404Z,34.74
2018-07-31T07:46:16.314Z,35.28
2018-07-31T07:48:09.050Z,37.09
2018-07-31T07:49:08.949Z,37.74
2018-07-31T07:51:01.688Z,38.78
2018-07-31T07:52:01.599Z,39.20
2018-07-31T07:53:54.355Z,38.83
2018-07-31T07:54:54.213Z,38.83
2018-07-31T07:56:46.943Z,37.72
2018-07-31T07:57:46.838Z,36.96
2018-07-31T07:59:39.576Z,36.02
2018-07-31T08:00:39.484Z,35.87
2018-07-31T08:02:32.217Z,35.64
2018-07-31T08:03:32.110Z,35.53
2018-07-31T08:05:24.837Z,35.58
2018-07-31T08:06:24.744Z,35.16
2018-07-31T08:08:17.483Z,34.94
2018-07-31T08:09:17.378Z,34.55
2018-07-31T08:11:10.106Z,34.90
2018-07-31T08:12:10.005Z,34.75
2018-07-31T08:14:02.713Z,34.99
2018-07-31T08:15:02.646Z,35.12
2018-07-31T08:16:55.355Z,36.59
2018-07-31T08:17:55.249Z,36.93
2018-07-31T08:19:47.967Z,37.22
2018-07-31T08:20:47.872Z,36.99
2018-07-31T08:22:40.625Z,36.32
2018-07-31T08:23:40.505Z,35.76
2018-07-31T08:25:33.238Z,35.15
2018-07-31T08:26:33.139Z,35.49
2018-07-31T08:28:25.867Z,36.61
2018-07-31T08:29:25.766Z,36.97
2018-07-31T08:31:18.500Z,36.43
2018-07-31T08:32:18.385Z,36.59
2018-07-31T08:34:11.104Z,36.04
2018-07-31T08:35:11.019Z,35.53
2018-07-31T08:37:04.749Z,35.57
2018-07-31T08:38:04.651Z,36.14
2018-07-31T08:39:57.355Z,36.68
2018-07-31T08:40:57.270Z,36.89
2018-07-31T08:42:50.001Z,36.71
2018-07-31T08:43:49.899Z,36.40
2018-07-31T08:45:42.616Z,35.89
2018-07-31T08:46:42.567Z,35.52
2018-07-31T08:48:35.265Z,35.06
2018-07-31T08:49:35.169Z,34.77
2018-07-31T08:51:27.902Z,34.03
2018-07-31T08:52:27.797Z,33.75
2018-07-31T08:54:20.509Z,33.62
2018-07-31T08:55:20.428Z,33.47
2018-07-31T08:57:13.150Z,33.36
2018-07-31T08:58:13.051Z,33.20
2018-07-31T09:00:05.762Z,33.03
2018-07-31T09:01:05.668Z,33.01
2018-07-31T09:02:58.386Z,32.81
2018-07-31T09:03:58.288Z,32.87
2018-07-31T09:05:50.990Z,32.86
2018-07-31T09:06:50.898Z,32.93
2018-07-31T09:08:43.716Z,32.98
2018-07-31T09:09:43.514Z,32.98
2018-07-31T09:11:36.233Z,33.09
2018-07-31T09:12:36.128Z,33.16
2018-07-31T09:14:28.843Z,33.40
2018-07-31T09:15:28.749Z,33.47
2018-07-31T09:17:21.464Z,33.32
2018-07-31T09:18:21.361Z,33.24
2018-07-31T09:20:14.067Z,33.48
2018-07-31T09:21:13.978Z,33.52
2018-07-31T09:23:06.708Z,33.37
2018-07-31T09:24:06.592Z,33.40
2018-07-31T09:25:59.306Z,33.36
2018-07-31T09:26:59.222Z,33.47
2018-07-31T09:28:51.928Z,33.46
2018-07-31T09:29:51.823Z,33.52
2018-07-31T09:31:44.549Z,33.59
2018-07-31T09:32:44.443Z,33.69
2018-07-31T09:34:37.147Z,33.48
2018-07-31T09:35:37.060Z,33.44
2018-07-31T09:37:29.831Z,33.73
2018-07-31T09:38:29.719Z,33.87
2018-07-31T09:40:22.430Z,34.02
2018-07-31T09:41:22.343Z,33.97
2018-07-31T09:43:15.069Z,34.14
2018-07-31T09:44:14.963Z,34.14
2018-07-31T09:46:07.672Z,34.24
2018-07-31T09:47:07.590Z,34.30
2018-07-31T09:49:00.303Z,34.33
2018-07-31T09:50:00.192Z,34.40
2018-07-31T09:51:52.919Z,34.45
2018-07-31T09:52:52.813Z,34.46
2018-07-31T09:54:45.508Z,34.40
2018-07-31T09:55:45.430Z,34.18
2018-07-31T09:57:38.153Z,33.89
2018-07-31T09:58:38.047Z,33.47
2018-07-31T10:00:30.756Z,33.39
2018-07-31T10:01:30.657Z,33.37
2018-07-31T10:03:23.387Z,33.55
2018-07-31T10:04:23.283Z,33.59
2018-07-31T10:06:16.002Z,33.46
2018-07-31T10:07:15.898Z,33.28
2018-07-31T10:09:08.618Z,33.41
2018-07-31T10:10:08.512Z,33.44
2018-07-31T10:12:01.328Z,33.62
2018-07-31T10:13:01.127Z,33.74
2018-07-31T10:14:53.838Z,33.65
2018-07-31T10:15:53.745Z,33.80
2018-07-31T10:17:46.495Z,33.77
2018-07-31T10:18:46.367Z,33.69
2018-07-31T10:20:39.071Z,33.65
2018-07-31T10:21:38.976Z,33.58
2018-07-31T10:23:31.702Z,33.47
2018-07-31T10:24:31.640Z,33.44
2018-07-31T10:26:24.335Z,33.50
2018-07-31T10:27:24.221Z,33.58
2018-07-31T10:29:16.939Z,33.39
2018-07-31T10:30:16.844Z,33.47
2018-07-31T10:32:09.610Z,33.77
2018-07-31T10:33:09.501Z,33.78
2018-07-31T10:35:03.198Z,33.96
2018-07-31T10:36:03.104Z,34.12
2018-07-31T10:37:55.946Z,34.11
2018-07-31T10:38:55.728Z,33.74
2018-07-31T10:40:48.438Z,33.61
2018-07-31T10:41:48.341Z,33.58
2018-07-31T10:43:41.080Z,33.74
2018-07-31T10:44:40.962Z,33.85
2018-07-31T10:46:33.688Z,34.21
2018-07-31T10:47:33.571Z,34.40
2018-07-31T10:49:26.290Z,34.29
2018-07-31T10:50:26.192Z,34.32
2018-07-31T10:52:18.915Z,33.89
2018-07-31T10:53:18.812Z,33.87
2018-07-31T10:55:11.514Z,33.69
2018-07-31T10:56:11.421Z,33.85
2018-07-31T10:58:04.205Z,33.87
2018-07-31T10:59:04.041Z,33.80
2018-07-31T11:00:56.739Z,33.84
2018-07-31T11:01:56.647Z,33.84
2018-07-31T11:03:49.433Z,33.75
2018-07-31T11:04:49.268Z,33.68
2018-07-31T11:06:41.994Z,33.73
2018-07-31T11:07:41.884Z,33.59
2018-07-31T11:09:34.599Z,33.71
2018-07-31T11:10:34.507Z,33.71
2018-07-31T11:12:27.229Z,33.24
2018-07-31T11:13:27.124Z,33.24
2018-07-31T11:15:19.844Z,33.21
2018-07-31T11:16:19.761Z,33.21
2018-07-31T11:18:12.476Z,33.08
2018-07-31T11:19:12.370Z,32.96
2018-07-31T11:21:05.144Z,32.89
2018-07-31T11:22:04.973Z,33.08
2018-07-31T11:23:57.704Z,33.23
2018-07-31T11:24:57.599Z,33.32
2018-07-31T11:26:50.324Z,33.13
2018-07-31T11:27:50.211Z,33.06
2018-07-31T11:29:42.914Z,32.96
2018-07-31T11:30:42.815Z,32.64
2018-07-31T11:32:35.540Z,32.65
2018-07-31T11:33:35.430Z,32.83
2018-07-31T11:35:28.154Z,33.06
2018-07-31T11:36:28.056Z,33.36
2018-07-31T11:38:20.786Z,33.18
2018-07-31T11:39:20.667Z,33.17
2018-07-31T11:41:13.374Z,32.83
2018-07-31T11:42:13.282Z,32.76
2018-07-31T11:44:06.070Z,33.03
2018-07-31T11:45:05.900Z,33.18
2018-07-31T11:46:58.616Z,33.37
2018-07-31T11:47:58.502Z,33.44
2018-07-31T11:49:51.410Z,33.53
2018-07-31T11:50:51.114Z,33.48
2018-07-31T11:52:43.857Z,33.53
2018-07-31T11:53:43.755Z,33.56
2018-07-31T11:55:36.454Z,33.63
2018-07-31T11:56:36.357Z,33.77
2018-07-31T11:58:29.088Z,33.99
2018-07-31T11:59:28.971Z,33.80
2018-07-31T12:01:21.675Z,33.55
2018-07-31T12:02:21.595Z,33.63
2018-07-31T12:04:14.353Z,33.47
2018-07-31T12:05:14.198Z,33.11
2018-07-31T12:07:06.919Z,32.96
2018-07-31T12:08:06.824Z,33.09
2018-07-31T12:09:59.600Z,33.13
2018-07-31T12:10:59.438Z,33.44
2018-07-31T12:12:52.160Z,33.11
2018-07-31T12:13:52.055Z,32.94
2018-07-31T12:15:44.740Z,32.96
2018-07-31T12:16:44.654Z,33.09
2018-07-31T12:18:37.376Z,33.21
2018-07-31T12:19:37.263Z,33.29
2018-07-31T12:21:29.968Z,33.47
2018-07-31T12:22:29.873Z,33.55
2018-07-31T12:24:22.595Z,33.78
2018-07-31T12:25:22.488Z,33.71
2018-07-31T12:27:15.698Z,33.89
2018-07-31T12:28:15.587Z,33.97
2018-07-31T12:30:08.304Z,33.46
2018-07-31T12:31:08.198Z,33.47
2018-07-31T12:33:00.957Z,33.65
2018-07-31T12:34:00.807Z,33.73
2018-07-31T12:35:53.503Z,33.41
2018-07-31T12:36:53.417Z,33.28
2018-07-31T12:38:46.138Z,33.26
2018-07-31T12:39:46.025Z,33.55
2018-07-31T12:41:38.781Z,33.50
2018-07-31T12:42:38.635Z,33.53
2018-07-31T12:44:31.343Z,33.34
2018-07-31T12:45:31.248Z,33.18
2018-07-31T12:47:23.973Z,32.90
2018-07-31T12:48:23.858Z,32.98
2018-07-31T12:50:16.627Z,32.99
2018-07-31T12:51:16.470Z,33.17
2018-07-31T12:53:09.196Z,33.65
2018-07-31T12:54:09.075Z,34.02
2018-07-31T12:56:01.783Z,33.97
2018-07-31T12:57:01.693Z,33.65
2018-07-31T12:58:54.444Z,33.73
2018-07-31T12:59:54.326Z,33.92
2018-07-31T13:01:47.023Z,34.02
2018-07-31T13:02:46.913Z,33.75
2018-07-31T13:04:39.610Z,33.61
2018-07-31T13:05:39.523Z,33.53
2018-07-31T13:07:32.245Z,33.61
2018-07-31T13:08:32.138Z,33.71
2018-07-31T13:10:24.836Z,33.78
2018-07-31T13:11:24.750Z,33.87
2018-07-31T13:13:17.491Z,33.89
2018-07-31T13:14:17.366Z,34.05
2018-07-31T13:16:10.063Z,34.08
2018-07-31T13:17:09.979Z,33.83
2018-07-31T13:19:02.763Z,33.77
2018-07-31T13:20:02.582Z,33.62
2018-07-31T13:21:55.311Z,33.16
2018-07-31T13:22:55.252Z,33.01
2018-07-31T13:24:47.902Z,32.72
2018-07-31T13:25:47.816Z,32.62
2018-07-31T13:27:40.594Z,32.61
2018-07-31T13:28:40.435Z,32.52
2018-07-31T13:30:33.144Z,32.45
2018-07-31T13:31:33.048Z,32.39
2018-07-31T13:33:25.772Z,32.42
2018-07-31T13:34:25.658Z,32.59
2018-07-31T13:36:18.408Z,32.76
2018-07-31T13:37:18.279Z,32.87
2018-07-31T13:39:11.022Z,32.91
2018-07-31T13:40:10.893Z,32.99
2018-07-31T13:42:03.615Z,32.99
2018-07-31T13:43:03.503Z,33.08
2018-07-31T13:44:56.208Z,32.98
2018-07-31T13:45:56.115Z,32.79
2018-07-31T13:47:48.841Z,32.61
2018-07-31T13:48:48.734Z,32.62
2018-07-31T13:50:41.433Z,32.43
2018-07-31T13:51:41.341Z,32.27
2018-07-31T13:53:34.066Z,32.23
2018-07-31T13:54:33.954Z,32.37
2018-07-31T13:56:26.678Z,32.52
2018-07-31T13:57:26.580Z,32.53
2018-07-31T13:59:19.302Z,32.27
2018-07-31T14:00:19.184Z,32.09
2018-07-31T14:02:11.907Z,32.24
2018-07-31T14:03:11.830Z,32.43
2018-07-31T14:05:04.505Z,32.43
2018-07-31T14:06:04.413Z,32.47
2018-07-31T14:07:57.132Z,32.39
2018-07-31T14:08:57.021Z,32.28
2018-07-31T14:10:50.226Z,32.45
2018-07-31T14:11:50.139Z,32.38
2018-07-31T14:13:42.881Z,32.42
2018-07-31T14:14:42.733Z,32.46
2018-07-31T14:16:35.434Z,32.46
2018-07-31T14:17:35.346Z,32.38
2018-07-31T14:19:28.070Z,32.71
2018-07-31T14:20:27.962Z,32.76
2018-07-31T14:22:20.671Z,32.65
2018-07-31T14:23:20.554Z,32.80
2018-07-31T14:25:13.269Z,32.53
2018-07-31T14:26:13.169Z,32.42
2018-07-31T14:28:05.907Z,32.64
2018-07-31T14:29:05.782Z,32.72
2018-07-31T14:30:58.488Z,32.79
2018-07-31T14:31:58.398Z,32.89
2018-07-31T14:33:51.111Z,33.03
2018-07-31T14:34:51.003Z,33.12
2018-07-31T14:36:43.723Z,33.26
2018-07-31T14:37:43.607Z,33.24
2018-07-31T14:39:36.330Z,33.01
2018-07-31T14:40:36.213Z,32.94
2018-07-31T14:42:28.939Z,32.61
2018-07-31T14:43:28.832Z,32.39
2018-07-31T14:45:21.529Z,32.24
2018-07-31T14:46:21.438Z,32.25
2018-07-31T14:48:14.173Z,32.42
2018-07-31T14:49:14.051Z,32.35
2018-07-31T14:51:06.749Z,32.39
2018-07-31T14:52:06.656Z,32.19
2018-07-31T14:53:59.396Z,32.00
2018-07-31T14:54:59.297Z,31.86
2018-07-31T14:56:51.984Z,31.67
2018-07-31T14:57:51.867Z,31.50
2018-07-31T14:59:44.611Z,31.33
2018-07-31T15:00:44.477Z,31.16
2018-07-31T15:02:37.200Z,31.06
2018-07-31T15:03:37.088Z,31.04
2018-07-31T15:05:29.813Z,30.97
2018-07-31T15:06:29.715Z,30.97
2018-07-31T15:08:22.429Z,31.50
2018-07-31T15:09:22.317Z,31.49
2018-07-31T15:11:15.066Z,31.77
2018-07-31T15:12:14.923Z,31.90
2018-07-31T15:14:07.649Z,31.95
2018-07-31T15:15:07.526Z,31.90
2018-07-31T15:17:00.243Z,32.13
2018-07-31T15:18:00.130Z,32.38
2018-07-31T15:19:52.833Z,32.42
2018-07-31T15:20:52.739Z,32.31
2018-07-31T15:22:45.457Z,32.31
2018-07-31T15:23:45.342Z,32.24
2018-07-31T15:25:38.047Z,32.13
2018-07-31T15:26:37.944Z,32.09
2018-07-31T15:28:30.668Z,32.20
2018-07-31T15:29:30.589Z,32.42
2018-07-31T15:31:23.284Z,31.98
2018-07-31T15:32:23.168Z,31.81
2018-07-31T15:34:15.878Z,31.72
2018-07-31T15:35:15.830Z,31.86
2018-07-31T15:37:08.492Z,32.03
2018-07-31T15:38:08.373Z,31.93
2018-07-31T15:40:01.084Z,32.12
2018-07-31T15:41:00.985Z,32.15
2018-07-31T15:42:53.706Z,31.98
2018-07-31T15:43:53.594Z,32.09
2018-07-31T15:45:46.295Z,32.20
2018-07-31T15:46:46.284Z,31.95
2018-07-31T15:48:38.922Z,31.52
2018-07-31T15:49:38.819Z,31.53
2018-07-31T15:51:31.513Z,31.43
2018-07-31T15:52:31.423Z,31.38
2018-07-31T15:54:24.143Z,31.31
2018-07-31T15:55:24.028Z,31.34
2018-07-31T15:57:16.762Z,31.26
2018-07-31T15:58:16.643Z,31.34
2018-07-31T16:00:09.344Z,31.31
2018-07-31T16:01:09.261Z,31.13
2018-07-31T16:03:01.969Z,31.33
2018-07-31T16:04:01.850Z,31.34
2018-07-31T16:05:54.640Z,31.34
2018-07-31T16:06:54.460Z,31.37
2018-07-31T16:08:47.176Z,31.15
2018-07-31T16:09:47.066Z,31.01
2018-07-31T16:11:39.820Z,30.97
2018-07-31T16:12:39.694Z,30.97
2018-07-31T16:14:32.404Z,30.88
2018-07-31T16:15:32.292Z,30.94
2018-07-31T16:17:25.016Z,30.97
2018-07-31T16:18:24.909Z,30.89
2018-07-31T16:20:17.609Z,31.01
2018-07-31T16:21:17.511Z,30.88
2018-07-31T16:23:10.235Z,30.97
2018-07-31T16:24:10.113Z,31.07
2018-07-31T16:26:02.827Z,31.26
2018-07-31T16:27:02.732Z,31.49
2018-07-31T16:28:55.455Z,31.30
2018-07-31T16:29:55.336Z,31.08
2018-07-31T16:31:48.038Z,31.12
2018-07-31T16:32:47.940Z,30.96
2018-07-31T16:34:40.668Z,30.94
2018-07-31T16:35:40.562Z,31.00
2018-07-31T16:37:33.276Z,30.99
2018-07-31T16:38:33.167Z,31.01
2018-07-31T16:40:25.879Z,30.96
2018-07-31T16:41:25.788Z,31.13
2018-07-31T16:43:18.488Z,31.18
2018-07-31T16:44:18.375Z,31.15
2018-07-31T16:46:11.137Z,31.01
2018-07-31T16:47:10.982Z,31.06
2018-07-31T16:49:03.719Z,31.16
2018-07-31T16:50:03.609Z,31.18
2018-07-31T16:51:56.309Z,31.00
2018-07-31T16:52:56.212Z,31.07
2018-07-31T16:54:48.926Z,31.15
2018-07-31T16:55:48.816Z,31.19
2018-07-31T16:57:41.565Z,31.13
2018-07-31T16:58:41.429Z,31.31
2018-07-31T17:00:34.130Z,31.43
2018-07-31T17:01:34.034Z,31.37
2018-07-31T17:03:26.761Z,31.33
2018-07-31T17:04:26.642Z,31.50
2018-07-31T17:06:19.350Z,31.28
2018-07-31T17:07:19.250Z,31.18
2018-07-31T17:09:11.978Z,30.89
2018-07-31T17:10:11.862Z,30.67
2018-07-31T17:12:04.565Z,30.29
2018-07-31T17:13:04.476Z,30.11
2018-07-31T17:14:57.202Z,29.97
2018-07-31T17:15:57.090Z,29.84
2018-07-31T17:17:49.797Z,29.69
2018-07-31T17:18:49.684Z,29.69
2018-07-31T17:20:42.382Z,29.57
2018-07-31T17:21:42.284Z,29.47
2018-07-31T17:23:35.003Z,29.51
2018-07-31T17:24:34.892Z,29.52
2018-07-31T17:26:27.590Z,29.61
2018-07-31T17:27:27.501Z,29.72
2018-07-31T17:29:20.205Z,29.54
2018-07-31T17:30:20.095Z,29.48
2018-07-31T17:32:12.805Z,29.63
2018-07-31T17:33:12.691Z,29.54
2018-07-31T17:35:05.391Z,29.58
2018-07-31T17:36:05.296Z,29.45
2018-07-31T17:37:58.046Z,29.43
2018-07-31T17:38:57.914Z,29.39
2018-07-31T17:40:50.608Z,29.33
2018-07-31T17:41:50.518Z,29.29
2018-07-31T17:43:43.214Z,29.35
2018-07-31T17:44:43.110Z,29.52
2018-07-31T17:46:35.802Z,29.39
2018-07-31T17:47:35.735Z,29.35
2018-07-31T17:49:28.414Z,29.14
2018-07-31T17:50:28.295Z,29.02
2018-07-31T17:52:21.024Z,29.01
2018-07-31T17:53:20.910Z,28.91
2018-07-31T17:55:13.609Z,28.88
2018-07-31T17:56:13.505Z,28.80
2018-07-31T17:58:06.249Z,28.68
2018-07-31T17:59:06.110Z,28.76
2018-07-31T18:00:58.808Z,28.72
2018-07-31T18:01:58.715Z,28.72
2018-07-31T18:03:51.428Z,28.60
2018-07-31T18:04:51.312Z,28.57
2018-07-31T18:06:44.001Z,28.57
2018-07-31T18:07:43.908Z,28.54
2018-07-31T18:09:36.625Z,28.45
2018-07-31T18:10:36.511Z,28.53
2018-07-31T18:12:29.216Z,28.45
2018-07-31T18:13:29.101Z,28.54
2018-07-31T18:15:21.795Z,28.57
2018-07-31T18:16:21.701Z,28.41
2018-07-31T18:18:14.404Z,28.38
2018-07-31T18:19:14.296Z,28.41
2018-07-31T18:21:06.982Z,28.39
2018-07-31T18:22:06.886Z,28.35
2018-07-31T18:23:59.623Z,28.28
2018-07-31T18:24:59.486Z,28.26
2018-07-31T18:26:52.676Z,28.23
2018-07-31T18:27:52.574Z,28.26
2018-07-31T18:29:45.287Z,28.16
2018-07-31T18:30:45.173Z,28.06
2018-07-31T18:32:37.893Z,28.08
2018-07-31T18:33:37.772Z,28.01
2018-07-31T18:35:30.471Z,27.96
2018-07-31T18:36:30.374Z,27.93
2018-07-31T18:38:23.077Z,27.93
2018-07-31T18:39:22.970Z,27.96
2018-07-31T18:41:15.752Z,27.83
2018-07-31T18:42:15.575Z,27.89
2018-07-31T18:44:08.293Z,27.81
2018-07-31T18:45:08.182Z,27.74
2018-07-31T18:47:00.875Z,27.79
2018-07-31T18:48:00.782Z,27.69
2018-07-31T18:49:53.498Z,27.74
2018-07-31T18:50:53.385Z,27.74
2018-07-31T18:52:46.095Z,27.65
2018-07-31T18:53:45.994Z,27.52
2018-07-31T18:55:38.678Z,27.53
2018-07-31T18:56:38.582Z,27.51
2018-07-31T18:58:31.293Z,27.42
2018-07-31T18:59:31.171Z,27.41
2018-07-31T19:01:23.969Z,27.34
2018-07-31T19:02:23.784Z,27.30
2018-07-31T19:04:16.485Z,27.30
2018-07-31T19:05:16.365Z,27.19
2018-07-31T19:07:09.064Z,27.06
2018-07-31T19:08:08.965Z,27.11
2018-07-31T19:10:01.670Z,27.11
2018-07-31T19:11:01.559Z,27.08
2018-07-31T19:12:54.274Z,27.05
2018-07-31T19:13:54.161Z,26.99
2018-07-31T19:15:46.854Z,27.00
2018-07-31T19:16:46.755Z,26.89
2018-07-31T19:18:39.468Z,26.93
2018-07-31T19:19:39.360Z,26.93
2018-07-31T19:21:32.040Z,26.86
2018-07-31T19:22:31.947Z,26.84
2018-07-31T19:24:24.673Z,26.81
2018-07-31T19:25:24.545Z,26.78
2018-07-31T19:27:17.235Z,26.76
2018-07-31T19:28:17.156Z,26.71
2018-07-31T19:30:09.864Z,26.75
2018-07-31T19:31:09.753Z,26.67
2018-07-31T19:33:02.511Z,26.64
2018-07-31T19:34:02.385Z,26.63
2018-07-31T19:35:55.047Z,26.64
2018-07-31T19:36:54.954Z,26.56
2018-07-31T19:38:47.664Z,26.67
2018-07-31T19:39:47.553Z,26.67
2018-07-31T19:41:40.245Z,26.57
2018-07-31T19:42:40.145Z,26.61
2018-07-31T19:44:32.856Z,26.68
2018-07-31T19:45:32.740Z,26.54
2018-07-31T19:47:25.439Z,26.49
2018-07-31T19:48:25.340Z,26.44
2018-07-31T19:50:18.061Z,26.47
2018-07-31T19:51:17.950Z,26.42
2018-07-31T19:53:10.667Z,26.30
2018-07-31T19:54:10.550Z,26.35
2018-07-31T19:56:03.244Z,26.22
2018-07-31T19:57:03.142Z,26.32
2018-07-31T19:58:55.848Z,26.23
2018-07-31T19:59:55.741Z,26.26
2018-07-31T20:01:48.426Z,26.20
2018-07-31T20:02:48.326Z,26.20
2018-07-31T20:04:41.046Z,26.24
2018-07-31T20:05:40.927Z,26.09
2018-07-31T20:07:33.640Z,26.12
2018-07-31T20:08:33.521Z,26.04
2018-07-31T20:10:26.209Z,26.00
2018-07-31T20:11:26.117Z,25.88
2018-07-31T20:13:18.825Z,25.84
2018-07-31T20:14:18.700Z,25.84
2018-07-31T20:16:11.411Z,25.82
2018-07-31T20:17:11.310Z,25.76
2018-07-31T20:19:04.021Z,25.79
2018-07-31T20:20:03.905Z,25.78
2018-07-31T20:21:56.595Z,25.66
2018-07-31T20:22:56.493Z,25.69
2018-07-31T20:24:49.239Z,25.67
2018-07-31T20:25:49.100Z,25.71
2018-07-31T20:27:41.803Z,25.60
2018-07-31T20:28:41.682Z,25.52
2018-07-31T20:30:34.389Z,25.56
2018-07-31T20:31:34.293Z,25.51
2018-07-31T20:33:26.994Z,25.48
2018-07-31T20:34:26.873Z,25.41
2018-07-31T20:36:19.578Z,25.42
2018-07-31T20:37:19.472Z,25.26
2018-07-31T20:39:12.196Z,25.20
2018-07-31T20:40:12.077Z,25.15
2018-07-31T20:42:04.772Z,25.23
2018-07-31T20:43:04.664Z,25.07
2018-07-31T20:44:57.381Z,25.07
2018-07-31T20:45:57.276Z,25.09
2018-07-31T20:47:49.974Z,25.08
2018-07-31T20:48:49.858Z,25.02
2018-07-31T20:50:42.556Z,25.02
2018-07-31T20:51:42.469Z,25.04
2018-07-31T20:53:35.170Z,24.89
2018-07-31T20:54:35.048Z,24.86
2018-07-31T20:56:27.748Z,24.87
2018-07-31T20:57:27.653Z,24.87
2018-07-31T20:59:20.359Z,24.82
2018-07-31T21:00:20.240Z,25.00
2018-07-31T21:02:12.936Z,24.83
2018-07-31T21:03:12.836Z,24.80
2018-07-31T21:05:05.536Z,24.86
2018-07-31T21:06:05.431Z,24.74
2018-07-31T21:07:58.137Z,24.75
2018-07-31T21:08:58.020Z,24.66
2018-07-31T21:10:50.718Z,24.66
2018-07-31T21:11:50.609Z,24.63
2018-07-31T21:13:43.314Z,24.56
2018-07-31T21:14:43.206Z,24.58
2018-07-31T21:16:35.906Z,24.55
2018-07-31T21:17:35.811Z,24.55
2018-07-31T21:19:28.501Z,24.49
2018-07-31T21:20:28.385Z,24.40
2018-07-31T21:22:21.074Z,24.39
2018-07-31T21:23:20.975Z,24.42
2018-07-31T21:25:13.682Z,24.39
2018-07-31T21:26:13.569Z,24.36
2018-07-31T21:28:06.285Z,24.39
2018-07-31T21:29:06.174Z,24.34
2018-07-31T21:30:58.855Z,24.33
2018-07-31T21:31:58.754Z,24.21
2018-07-31T21:33:51.462Z,24.27
2018-07-31T21:34:51.344Z,24.19
2018-07-31T21:36:44.033Z,24.15
2018-07-31T21:37:43.938Z,24.14
2018-07-31T21:39:36.637Z,24.17
2018-07-31T21:40:36.523Z,24.02
2018-07-31T21:42:29.227Z,23.97
2018-07-31T21:43:29.127Z,23.99
2018-07-31T21:45:21.824Z,23.94
2018-07-31T21:46:21.712Z,23.96
2018-07-31T21:48:14.410Z,23.94
2018-07-31T21:49:14.298Z,24.02
2018-07-31T21:51:06.996Z,23.92
2018-07-31T21:52:06.896Z,23.94
2018-07-31T21:53:59.607Z,23.84
2018-07-31T21:54:59.580Z,23.81
2018-07-31T21:56:52.171Z,23.79
2018-07-31T21:57:52.078Z,23.87
2018-07-31T21:59:44.822Z,23.85
